sensor_id;sensor_type;location;lat;lon;timestamp;pressure;altitude;pressure_sealevel;temperature;humidity
11440;BME280;5776;51.814;4.510;2024-01-16T00:01:58;101024.47;;;2.09;100.00
11440;BME280;5776;51.814;4.510;2024-01-16T00:04:23;101020.97;;;2.08;100.00
11440;BME280;5776;51.814;4.510;2024-01-16T00:06:52;101027.13;;;2.09;100.00
11440;BME280;5776;51.814;4.510;2024-01-16T00:09:18;101029.44;;;2.05;100.00
11440;BME280;5776;51.814;4.510;2024-01-16T00:11:44;101027.59;;;2.06;100.00
11440;BME280;5776;51.814;4.510;2024-01-16T00:14:10;101034.44;;;2.02;100.00
11440;BME280;5776;51.814;4.510;2024-01-16T00:16:43;101028.13;;;1.96;100.00
11440;BME280;5776;51.814;4.510;2024-01-16T00:19:10;101039.34;;;2.05;100.00
11440;BME280;5776;51.814;4.510;2024-01-16T00:21:44;101023.72;;;2.02;100.00
11440;BME280;5776;51.814;4.510;2024-01-16T00:24:15;101025.34;;;2.03;100.00
11440;BME280;5776;51.814;4.510;2024-01-16T00:26:42;101027.00;;;2.04;100.00
11440;BME280;5776;51.814;4.510;2024-01-16T00:29:08;101019.56;;;2.06;100.00
11440;BME280;5776;51.814;4.510;2024-01-16T00:31:41;101031.16;;;2.00;100.00
11440;BME280;5776;51.814;4.510;2024-01-16T00:34:07;101045.63;;;1.80;100.00
11440;BME280;5776;51.814;4.510;2024-01-16T00:36:34;101044.41;;;1.94;100.00
11440;BME280;5776;51.814;4.510;2024-01-16T00:38:59;101035.72;;;1.99;100.00
11440;BME280;5776;51.814;4.510;2024-01-16T00:41:25;101043.59;;;1.94;100.00
11440;BME280;5776;51.814;4.510;2024-01-16T00:43:52;101050.97;;;1.99;100.00
11440;BME280;5776;51.814;4.510;2024-01-16T00:46:18;101049.72;;;2.01;100.00
11440;BME280;5776;51.814;4.510;2024-01-16T00:48:44;101049.91;;;2.00;100.00
11440;BME280;5776;51.814;4.510;2024-01-16T00:51:10;101045.38;;;2.00;100.00
11440;BME280;5776;51.814;4.510;2024-01-16T00:53:40;101052.13;;;2.03;100.00
11440;BME280;5776;51.814;4.510;2024-01-16T00:56:07;101046.78;;;2.03;100.00
11440;BME280;5776;51.814;4.510;2024-01-16T00:58:35;101048.66;;;2.02;100.00
11440;BME280;5776;51.814;4.510;2024-01-16T01:01:00;101047.03;;;2.01;100.00
11440;BME280;5776;51.814;4.510;2024-01-16T01:03:26;101048.91;;;2.01;100.00
11440;BME280;5776;51.814;4.510;2024-01-16T01:05:52;101041.66;;;2.01;100.00
11440;BME280;5776;51.814;4.510;2024-01-16T01:08:18;101049.09;;;1.99;100.00
11440;BME280;5776;51.814;4.510;2024-01-16T01:10:44;101046.88;;;1.96;100.00
11440;BME280;5776;51.814;4.510;2024-01-16T01:13:11;101040.69;;;1.95;100.00
11440;BME280;5776;51.814;4.510;2024-01-16T01:15:37;101051.25;;;1.90;100.00
11440;BME280;5776;51.814;4.510;2024-01-16T01:18:03;101055.13;;;1.94;100.00
11440;BME280;5776;51.814;4.510;2024-01-16T01:20:30;101046.03;;;1.95;100.00
11440;BME280;5776;51.814;4.510;2024-01-16T01:22:56;101050.38;;;1.97;100.00
11440;BME280;5776;51.814;4.510;2024-01-16T01:25:22;101045.03;;;1.97;100.00
11440;BME280;5776;51.814;4.510;2024-01-16T01:27:48;101061.31;;;1.95;100.00
11440;BME280;5776;51.814;4.510;2024-01-16T01:30:14;101077.34;;;1.83;100.00
11440;BME280;5776;51.814;4.510;2024-01-16T01:32:41;101067.66;;;1.82;100.00
11440;BME280;5776;51.814;4.510;2024-01-16T01:35:07;101065.72;;;1.89;100.00
11440;BME280;5776;51.814;4.510;2024-01-16T01:37:33;101071.00;;;1.59;100.00
11440;BME280;5776;51.814;4.510;2024-01-16T01:40:00;101073.31;;;1.56;100.00
11440;BME280;5776;51.814;4.510;2024-01-16T01:42:26;101079.53;;;1.68;100.00
11440;BME280;5776;51.814;4.510;2024-01-16T01:44:52;101084.63;;;1.76;100.00
11440;BME280;5776;51.814;4.510;2024-01-16T01:47:18;101084.97;;;1.80;100.00
11440;BME280;5776;51.814;4.510;2024-01-16T01:49:44;101076.63;;;1.88;100.00
11440;BME280;5776;51.814;4.510;2024-01-16T01:52:11;101072.13;;;1.88;100.00
11440;BME280;5776;51.814;4.510;2024-01-16T01:54:37;101069.59;;;1.93;100.00
11440;BME280;5776;51.814;4.510;2024-01-16T01:57:04;101071.00;;;1.96;100.00
11440;BME280;5776;51.814;4.510;2024-01-16T01:59:31;101058.28;;;1.91;100.00
11440;BME280;5776;51.814;4.510;2024-01-16T02:01:57;101063.84;;;1.90;100.00
11440;BME280;5776;51.814;4.510;2024-01-16T02:04:24;101066.06;;;1.93;100.00
11440;BME280;5776;51.814;4.510;2024-01-16T02:06:50;101067.13;;;1.92;100.00
11440;BME280;5776;51.814;4.510;2024-01-16T02:09:16;101063.16;;;1.94;100.00
11440;BME280;5776;51.814;4.510;2024-01-16T02:11:42;101061.56;;;1.93;100.00
11440;BME280;5776;51.814;4.510;2024-01-16T02:14:09;101059.91;;;1.92;100.00
11440;BME280;5776;51.814;4.510;2024-01-16T02:16:39;101056.63;;;1.90;100.00
11440;BME280;5776;51.814;4.510;2024-01-16T02:19:06;101056.88;;;1.89;100.00
11440;BME280;5776;51.814;4.510;2024-01-16T02:21:46;101051.97;;;1.86;100.00
11440;BME280;5776;51.814;4.510;2024-01-16T02:24:14;101049.03;;;1.87;100.00
11440;BME280;5776;51.814;4.510;2024-01-16T02:26:41;101046.59;;;1.86;100.00
11440;BME280;5776;51.814;4.510;2024-01-16T02:29:06;101047.88;;;1.83;100.00
11440;BME280;5776;51.814;4.510;2024-01-16T02:31:33;101040.06;;;1.82;100.00
11440;BME280;5776;51.814;4.510;2024-01-16T02:34:00;101040.13;;;1.75;100.00
11440;BME280;5776;51.814;4.510;2024-01-16T02:36:27;101038.94;;;1.71;100.00
11440;BME280;5776;51.814;4.510;2024-01-16T02:38:54;101047.19;;;1.69;100.00
11440;BME280;5776;51.814;4.510;2024-01-16T02:41:21;101051.28;;;1.72;100.00
11440;BME280;5776;51.814;4.510;2024-01-16T02:43:47;101039.22;;;1.63;100.00
11440;BME280;5776;51.814;4.510;2024-01-16T02:46:13;101036.13;;;1.66;100.00
11440;BME280;5776;51.814;4.510;2024-01-16T02:48:39;101032.41;;;1.67;100.00
11440;BME280;5776;51.814;4.510;2024-01-16T02:51:08;101025.97;;;1.68;100.00
11440;BME280;5776;51.814;4.510;2024-01-16T02:53:36;101024.38;;;1.67;100.00
11440;BME280;5776;51.814;4.510;2024-01-16T02:56:02;101016.94;;;1.69;100.00
11440;BME280;5776;51.814;4.510;2024-01-16T02:58:29;101018.56;;;1.70;100.00
11440;BME280;5776;51.814;4.510;2024-01-16T03:00:56;101025.91;;;1.75;100.00
11440;BME280;5776;51.814;4.510;2024-01-16T03:03:23;101025.72;;;1.76;100.00
11440;BME280;5776;51.814;4.510;2024-01-16T03:05:50;101027.31;;;1.77;100.00
11440;BME280;5776;51.814;4.510;2024-01-16T03:08:15;101022.34;;;1.81;100.00
11440;BME280;5776;51.814;4.510;2024-01-16T03:10:41;101031.19;;;1.81;100.00
11440;BME280;5776;51.814;4.510;2024-01-16T03:13:08;101030.16;;;1.82;100.00
11440;BME280;5776;51.814;4.510;2024-01-16T03:15:34;101031.19;;;1.81;100.00
11440;BME280;5776;51.814;4.510;2024-01-16T03:18:03;101026.44;;;1.83;100.00
11440;BME280;5776;51.814;4.510;2024-01-16T03:20:29;101033.06;;;1.81;100.00
11440;BME280;5776;51.814;4.510;2024-01-16T03:22:55;101028.28;;;1.83;100.00
11440;BME280;5776;51.814;4.510;2024-01-16T03:25:20;101027.25;;;1.84;100.00
11440;BME280;5776;51.814;4.510;2024-01-16T03:27:47;101046.06;;;1.77;100.00
11440;BME280;5776;51.814;4.510;2024-01-16T03:30:13;101030.31;;;1.69;100.00
11440;BME280;5776;51.814;4.510;2024-01-16T03:32:39;101030.78;;;1.66;100.00
11440;BME280;5776;51.814;4.510;2024-01-16T03:35:05;101037.75;;;1.67;100.00
11440;BME280;5776;51.814;4.510;2024-01-16T03:37:33;101035.38;;;1.59;100.00
11440;BME280;5776;51.814;4.510;2024-01-16T03:40:00;101040.88;;;1.45;100.00
11440;BME280;5776;51.814;4.510;2024-01-16T03:42:26;101041.25;;;1.49;100.00
11440;BME280;5776;51.814;4.510;2024-01-16T03:44:54;101033.31;;;1.61;100.00
11440;BME280;5776;51.814;4.510;2024-01-16T03:47:19;101021.09;;;1.65;100.00
11440;BME280;5776;51.814;4.510;2024-01-16T03:49:45;101023.75;;;1.65;100.00
11440;BME280;5776;51.814;4.510;2024-01-16T03:52:13;101027.34;;;1.59;100.00
11440;BME280;5776;51.814;4.510;2024-01-16T03:54:39;101031.28;;;1.56;100.00
11440;BME280;5776;51.814;4.510;2024-01-16T03:57:04;101028.22;;;1.52;100.00
11440;BME280;5776;51.814;4.510;2024-01-16T03:59:30;101029.28;;;1.51;100.00
11440;BME280;5776;51.814;4.510;2024-01-16T04:01:56;101020.19;;;1.52;100.00
11440;BME280;5776;51.814;4.510;2024-01-16T04:04:22;101021.03;;;1.53;100.00
11440;BME280;5776;51.814;4.510;2024-01-16T04:06:50;101001.84;;;1.56;100.00
11440;BME280;5776;51.814;4.510;2024-01-16T04:09:17;101002.00;;;1.61;100.00
11440;BME280;5776;51.814;4.510;2024-01-16T04:11:43;101006.59;;;1.54;100.00
11440;BME280;5776;51.814;4.510;2024-01-16T04:14:08;101005.19;;;1.51;100.00
11440;BME280;5776;51.814;4.510;2024-01-16T04:16:34;101002.66;;;1.57;100.00
11440;BME280;5776;51.814;4.510;2024-01-16T04:19:00;100992.25;;;1.48;100.00
11440;BME280;5776;51.814;4.510;2024-01-16T04:21:26;101001.84;;;1.56;100.00
11440;BME280;5776;51.814;4.510;2024-01-16T04:23:52;100999.16;;;1.56;100.00
11440;BME280;5776;51.814;4.510;2024-01-16T04:26:18;101002.28;;;1.35;100.00
11440;BME280;5776;51.814;4.510;2024-01-16T04:28:44;101005.84;;;1.28;100.00
11440;BME280;5776;51.814;4.510;2024-01-16T04:31:09;101003.53;;;1.32;100.00
11440;BME280;5776;51.814;4.510;2024-01-16T04:33:37;101003.03;;;1.42;100.00
11440;BME280;5776;51.814;4.510;2024-01-16T04:36:05;100994.47;;;1.51;100.00
11440;BME280;5776;51.814;4.510;2024-01-16T04:38:31;101002.66;;;1.57;100.00
11440;BME280;5776;51.814;4.510;2024-01-16T04:40:57;100990.53;;;1.54;100.00
11440;BME280;5776;51.814;4.510;2024-01-16T04:43:25;100988.81;;;1.60;100.00
11440;BME280;5776;51.814;4.510;2024-01-16T04:45:51;100987.34;;;1.64;100.00
11440;BME280;5776;51.814;4.510;2024-01-16T04:48:17;100987.94;;;1.66;100.00
11440;BME280;5776;51.814;4.510;2024-01-16T04:50:44;100991.41;;;1.66;100.00
11440;BME280;5776;51.814;4.510;2024-01-16T04:53:11;100978.84;;;1.67;100.00
11440;BME280;5776;51.814;4.510;2024-01-16T04:55:38;100982.13;;;1.69;100.00
11440;BME280;5776;51.814;4.510;2024-01-16T04:58:05;100983.75;;;1.70;100.00
11440;BME280;5776;51.814;4.510;2024-01-16T05:00:33;100988.63;;;1.73;100.00
11440;BME280;5776;51.814;4.510;2024-01-16T05:03:00;100985.75;;;1.75;100.00
11440;BME280;5776;51.814;4.510;2024-01-16T05:05:28;100979.59;;;1.74;100.00
11440;BME280;5776;51.814;4.510;2024-01-16T05:07:54;100980.41;;;1.75;100.00
11440;BME280;5776;51.814;4.510;2024-01-16T05:10:20;100971.34;;;1.76;100.00
11440;BME280;5776;51.814;4.510;2024-01-16T05:12:45;100969.69;;;1.75;100.00
11440;BME280;5776;51.814;4.510;2024-01-16T05:15:12;100972.16;;;1.76;100.00
11440;BME280;5776;51.814;4.510;2024-01-16T05:17:38;100955.25;;;1.76;100.00
11440;BME280;5776;51.814;4.510;2024-01-16T05:20:04;100955.47;;;1.74;100.00
11440;BME280;5776;51.814;4.510;2024-01-16T05:22:31;100965.47;;;1.67;100.00
11440;BME280;5776;51.814;4.510;2024-01-16T05:24:58;100957.22;;;1.68;100.00
11440;BME280;5776;51.814;4.510;2024-01-16T05:27:24;100954.16;;;1.65;100.00
11440;BME280;5776;51.814;4.510;2024-01-16T05:29:51;100950.31;;;1.61;100.00
11440;BME280;5776;51.814;4.510;2024-01-16T05:32:19;100947.03;;;1.59;100.00
11440;BME280;5776;51.814;4.510;2024-01-16T05:34:45;100942.69;;;1.58;100.00
11440;BME280;5776;51.814;4.510;2024-01-16T05:37:11;100942.69;;;1.58;100.00
11440;BME280;5776;51.814;4.510;2024-01-16T05:39:37;100938.63;;;1.55;100.00
11440;BME280;5776;51.814;4.510;2024-01-16T05:42:03;100935.72;;;1.57;100.00
11440;BME280;5776;51.814;4.510;2024-01-16T05:44:29;100934.09;;;1.56;100.00
11440;BME280;5776;51.814;4.510;2024-01-16T05:46:55;100923.16;;;1.57;100.00
11440;BME280;5776;51.814;4.510;2024-01-16T05:49:22;100926.88;;;1.56;100.00
11440;BME280;5776;51.814;4.510;2024-01-16T05:51:48;100923.41;;;1.56;100.00
11440;BME280;5776;51.814;4.510;2024-01-16T05:54:13;100925.22;;;1.55;100.00
11440;BME280;5776;51.814;4.510;2024-01-16T05:56:39;100919.31;;;1.53;100.00
11440;BME280;5776;51.814;4.510;2024-01-16T05:59:06;100910.69;;;1.51;100.00
11440;BME280;5776;51.814;4.510;2024-01-16T06:01:34;100916.03;;;1.51;100.00
11440;BME280;5776;51.814;4.510;2024-01-16T06:03:59;100912.16;;;1.47;100.00
11440;BME280;5776;51.814;4.510;2024-01-16T06:06:26;100909.94;;;1.44;100.00
11440;BME280;5776;51.814;4.510;2024-01-16T06:08:52;100908.28;;;1.43;100.00
11440;BME280;5776;51.814;4.510;2024-01-16T06:11:17;100911.56;;;1.45;100.00
11440;BME280;5776;51.814;4.510;2024-01-16T06:13:45;100914.38;;;1.50;100.00
11440;BME280;5776;51.814;4.510;2024-01-16T06:16:13;100920.13;;;1.54;100.00
11440;BME280;5776;51.814;4.510;2024-01-16T06:18:40;100917.66;;;1.52;100.00
11440;BME280;5776;51.814;4.510;2024-01-16T06:21:06;100914.03;;;1.46;100.00
11440;BME280;5776;51.814;4.510;2024-01-16T06:23:31;100912.38;;;1.45;100.00
11440;BME280;5776;51.814;4.510;2024-01-16T06:25:57;100919.97;;;1.48;100.00
11440;BME280;5776;51.814;4.510;2024-01-16T06:28:25;100921.00;;;1.47;100.00
11440;BME280;5776;51.814;4.510;2024-01-16T06:30:50;100919.13;;;1.48;100.00
11440;BME280;5776;51.814;4.510;2024-01-16T06:33:16;100921.81;;;1.48;100.00
11440;BME280;5776;51.814;4.510;2024-01-16T06:35:42;100928.81;;;1.49;100.00
11440;BME280;5776;51.814;4.510;2024-01-16T06:38:08;100929.28;;;1.46;100.00
11440;BME280;5776;51.814;4.510;2024-01-16T06:40:35;100938.72;;;1.48;100.00
11440;BME280;5776;51.814;4.510;2024-01-16T06:43:01;100928.00;;;1.48;100.00
11440;BME280;5776;51.814;4.510;2024-01-16T06:45:27;100929.63;;;1.49;100.00
11440;BME280;5776;51.814;4.510;2024-01-16T06:47:52;100938.72;;;1.48;100.00
11440;BME280;5776;51.814;4.510;2024-01-16T06:50:18;100939.16;;;1.45;100.00
11440;BME280;5776;51.814;4.510;2024-01-16T06:52:45;100938.34;;;1.45;100.00
11440;BME280;5776;51.814;4.510;2024-01-16T06:55:10;100939.16;;;1.45;100.00
11440;BME280;5776;51.814;4.510;2024-01-16T06:57:36;100932.84;;;1.40;100.00
11440;BME280;5776;51.814;4.510;2024-01-16T07:00:03;100926.69;;;1.39;100.00
11440;BME280;5776;51.814;4.510;2024-01-16T07:02:33;100931.81;;;1.41;100.00
11440;BME280;5776;51.814;4.510;2024-01-16T07:04:59;100940.06;;;1.39;100.00
11440;BME280;5776;51.814;4.510;2024-01-16T07:07:25;100934.84;;;1.44;100.00
11440;BME280;5776;51.814;4.510;2024-01-16T07:09:51;100935.06;;;1.43;100.00
11440;BME280;5776;51.814;4.510;2024-01-16T07:12:17;100937.53;;;1.44;100.00
11440;BME280;5776;51.814;4.510;2024-01-16T07:14:43;100933.22;;;1.43;100.00
11440;BME280;5776;51.814;4.510;2024-01-16T07:17:09;100940.41;;;1.43;100.00
11440;BME280;5776;51.814;4.510;2024-01-16T07:19:35;100926.06;;;1.37;100.00
11440;BME280;5776;51.814;4.510;2024-01-16T07:22:00;100937.84;;;1.36;100.00
11440;BME280;5776;51.814;4.510;2024-01-16T07:24:26;100941.13;;;1.38;100.00
11440;BME280;5776;51.814;4.510;2024-01-16T07:26:53;100950.75;;;1.39;100.00
11440;BME280;5776;51.814;4.510;2024-01-16T07:29:20;100952.63;;;1.39;100.00
11440;BME280;5776;51.814;4.510;2024-01-16T07:31:46;100952.38;;;1.40;100.00
11440;BME280;5776;51.814;4.510;2024-01-16T07:34:11;100954.50;;;1.38;100.00
11440;BME280;5776;51.814;4.510;2024-01-16T07:36:38;100957.75;;;1.40;100.00
11440;BME280;5776;51.814;4.510;2024-01-16T07:39:05;100964.16;;;1.39;100.00
11440;BME280;5776;51.814;4.510;2024-01-16T07:41:30;100966.38;;;1.42;100.00
11440;BME280;5776;51.814;4.510;2024-01-16T07:43:57;100970.56;;;1.38;100.00
11440;BME280;5776;51.814;4.510;2024-01-16T07:46:22;100972.53;;;1.43;100.00
11440;BME280;5776;51.814;4.510;2024-01-16T07:48:48;100970.38;;;1.51;100.00
11440;BME280;5776;51.814;4.510;2024-01-16T07:51:14;100970.31;;;1.58;100.00
11440;BME280;5776;51.814;4.510;2024-01-16T07:53:41;100970.31;;;1.58;100.00
11440;BME280;5776;51.814;4.510;2024-01-16T07:56:06;100969.03;;;1.61;100.00
11440;BME280;5776;51.814;4.510;2024-01-16T07:58:34;100974.41;;;1.61;100.00
11440;BME280;5776;51.814;4.510;2024-01-16T08:00:59;100972.88;;;1.65;100.00
11440;BME280;5776;51.814;4.510;2024-01-16T08:03:25;100976.16;;;1.67;100.00
11440;BME280;5776;51.814;4.510;2024-01-16T08:05:51;100970.97;;;1.54;100.00
11440;BME280;5776;51.814;4.510;2024-01-16T08:08:17;100970.59;;;1.68;100.00
11440;BME280;5776;51.814;4.510;2024-01-16T08:10:43;100969.84;;;1.61;100.00
11440;BME280;5776;51.814;4.510;2024-01-16T08:13:09;100973.03;;;1.70;100.00
11440;BME280;5776;51.814;4.510;2024-01-16T08:15:35;100970.06;;;1.60;100.00
11440;BME280;5776;51.814;4.510;2024-01-16T08:18:00;100966.59;;;1.59;100.00
11440;BME280;5776;51.814;4.510;2024-01-16T08:20:26;100968.31;;;1.54;100.00
11440;BME280;5776;51.814;4.510;2024-01-16T08:22:53;100968.06;;;1.55;100.00
11440;BME280;5776;51.814;4.510;2024-01-16T08:25:20;100965.84;;;1.52;100.00
11440;BME280;5776;51.814;4.510;2024-01-16T08:27:46;100965.84;;;1.52;100.00
11440;BME280;5776;51.814;4.510;2024-01-16T08:30:12;100958.63;;;1.52;100.00
11440;BME280;5776;51.814;4.510;2024-01-16T08:32:38;100964.22;;;1.51;100.00
11440;BME280;5776;51.814;4.510;2024-01-16T08:35:04;100962.56;;;1.50;100.00
11440;BME280;5776;51.814;4.510;2024-01-16T08:37:33;100967.84;;;1.57;100.00
11440;BME280;5776;51.814;4.510;2024-01-16T08:39:59;100959.59;;;1.58;100.00
11440;BME280;5776;51.814;4.510;2024-01-16T08:42:25;100971.47;;;1.62;100.00
11440;BME280;5776;51.814;4.510;2024-01-16T08:44:52;100971.72;;;1.61;100.00
11440;BME280;5776;51.814;4.510;2024-01-16T08:47:17;100968.59;;;1.64;100.00
11440;BME280;5776;51.814;4.510;2024-01-16T08:49:43;100967.41;;;1.60;100.00
11440;BME280;5776;51.814;4.510;2024-01-16T08:52:09;100963.31;;;1.57;100.00
11440;BME280;5776;51.814;4.510;2024-01-16T08:54:36;100965.78;;;1.59;100.00
11440;BME280;5776;51.814;4.510;2024-01-16T08:57:01;100959.97;;;1.62;100.00
11440;BME280;5776;51.814;4.510;2024-01-16T08:59:27;100965.38;;;1.55;100.00
11440;BME280;5776;51.814;4.510;2024-01-16T09:01:54;100953.88;;;1.55;100.00
11440;BME280;5776;51.814;4.510;2024-01-16T09:04:20;100954.09;;;1.53;100.00
11440;BME280;5776;51.814;4.510;2024-01-16T09:06:46;100954.53;;;1.50;100.00
11440;BME280;5776;51.814;4.510;2024-01-16T09:09:11;100957.75;;;1.59;100.00
11440;BME280;5776;51.814;4.510;2024-01-16T09:11:40;100963.09;;;1.59;100.00
11440;BME280;5776;51.814;4.510;2024-01-16T09:14:10;100961.69;;;1.56;100.00
11440;BME280;5776;51.814;4.510;2024-01-16T09:16:37;100958.34;;;1.61;100.00
11440;BME280;5776;51.814;4.510;2024-01-16T09:19:04;100968.00;;;1.62;100.00
11440;BME280;5776;51.814;4.510;2024-01-16T09:21:30;100970.88;;;1.60;100.00
11440;BME280;5776;51.814;4.510;2024-01-16T09:23:56;100969.84;;;1.61;100.00
11440;BME280;5776;51.814;4.510;2024-01-16T09:26:21;100970.31;;;1.58;100.00
11440;BME280;5776;51.814;4.510;2024-01-16T09:28:47;100972.41;;;1.56;100.00
11440;BME280;5776;51.814;4.510;2024-01-16T09:31:15;100966.38;;;1.61;100.00
11440;BME280;5776;51.814;4.510;2024-01-16T09:33:41;100965.31;;;1.62;100.00
11440;BME280;5776;51.814;4.510;2024-01-16T09:36:06;100964.72;;;1.60;100.00
11440;BME280;5776;51.814;4.510;2024-01-16T09:38:32;100958.34;;;1.61;100.00
11440;BME280;5776;51.814;4.510;2024-01-16T09:40:58;100960.78;;;1.62;100.00
11440;BME280;5776;51.814;4.510;2024-01-16T09:43:28;100962.84;;;1.60;100.00
11440;BME280;5776;51.814;4.510;2024-01-16T09:45:56;100963.31;;;1.57;100.00
11440;BME280;5776;51.814;4.510;2024-01-16T09:48:22;100964.50;;;1.61;100.00
11440;BME280;5776;51.814;4.510;2024-01-16T09:50:48;100960.09;;;1.67;100.00
11440;BME280;5776;51.814;4.510;2024-01-16T09:53:14;100962.44;;;1.63;100.00
11440;BME280;5776;51.814;4.510;2024-01-16T09:55:40;100951.13;;;1.61;100.00
11440;BME280;5776;51.814;4.510;2024-01-16T09:58:08;100950.88;;;1.63;100.00
11440;BME280;5776;51.814;4.510;2024-01-16T10:00:38;100951.59;;;1.70;100.00
11440;BME280;5776;51.814;4.510;2024-01-16T10:03:04;100959.50;;;1.65;100.00
11440;BME280;5776;51.814;4.510;2024-01-16T10:05:30;100952.81;;;1.74;100.00
11440;BME280;5776;51.814;4.510;2024-01-16T10:07:58;100952.47;;;1.82;100.00
11440;BME280;5776;51.814;4.510;2024-01-16T10:10:24;100948.91;;;1.88;100.00
11440;BME280;5776;51.814;4.510;2024-01-16T10:12:55;100946.66;;;1.85;100.00
11440;BME280;5776;51.814;4.510;2024-01-16T10:15:21;100948.78;;;1.83;100.00
11440;BME280;5776;51.814;4.510;2024-01-16T10:17:47;100939.81;;;1.89;100.00
11440;BME280;5776;51.814;4.510;2024-01-16T10:20:13;100944.44;;;1.82;100.00
11440;BME280;5776;51.814;4.510;2024-01-16T10:22:40;100947.94;;;1.83;100.00
11440;BME280;5776;51.814;4.510;2024-01-16T10:25:10;100949.59;;;1.84;100.00
11440;BME280;5776;51.814;4.510;2024-01-16T10:27:42;100951.59;;;1.88;100.00
11440;BME280;5776;51.814;4.510;2024-01-16T10:30:10;100951.88;;;1.80;100.00
11440;BME280;5776;51.814;4.510;2024-01-16T10:32:37;100939.53;;;1.79;100.00
11440;BME280;5776;51.814;4.510;2024-01-16T10:37:50;100923.00;;;1.82;100.00
11440;BME280;5776;51.814;4.510;2024-01-16T10:40:21;100926.75;;;1.81;100.00
11440;BME280;5776;51.814;4.510;2024-01-16T10:45:23;100922.56;;;1.85;100.00
11440;BME280;5776;51.814;4.510;2024-01-16T10:48:00;100931.31;;;1.92;100.00
11440;BME280;5776;51.814;4.510;2024-01-16T10:50:26;100931.44;;;1.98;100.00
11440;BME280;5776;51.814;4.510;2024-01-16T10:52:54;100932.63;;;2.02;100.00
11440;BME280;5776;51.814;4.510;2024-01-16T10:55:22;100921.78;;;1.97;100.00
11440;BME280;5776;51.814;4.510;2024-01-16T10:57:49;100914.72;;;2.14;100.00
11440;BME280;5776;51.814;4.510;2024-01-16T11:00:19;100920.69;;;2.28;100.00
11440;BME280;5776;51.814;4.510;2024-01-16T11:03:09;100905.56;;;2.33;100.00
11440;BME280;5776;51.814;4.510;2024-01-16T11:05:37;100898.34;;;2.34;100.00
11440;BME280;5776;51.814;4.510;2024-01-16T11:08:05;100902.59;;;2.23;100.00
11440;BME280;5776;51.814;4.510;2024-01-16T11:10:32;100898.44;;;2.27;100.00
11440;BME280;5776;51.814;4.510;2024-01-16T11:13:02;100897.53;;;2.33;100.00
11440;BME280;5776;51.814;4.510;2024-01-16T11:15:31;100896.09;;;2.43;100.00
11440;BME280;5776;51.814;4.510;2024-01-16T11:17:58;100898.19;;;2.41;100.00
11440;BME280;5776;51.814;4.510;2024-01-16T11:20:25;100897.47;;;2.10;100.00
11440;BME280;5776;51.814;4.510;2024-01-16T11:22:53;100891.31;;;2.09;100.00
11440;BME280;5776;51.814;4.510;2024-01-16T11:25:31;100883.38;;;2.14;100.00
11440;BME280;5776;51.814;4.510;2024-01-16T11:28:11;100889.78;;;2.25;100.00
11440;BME280;5776;51.814;4.510;2024-01-16T11:30:40;100887.47;;;2.17;100.00
11440;BME280;5776;51.814;4.510;2024-01-16T11:35:58;100885.25;;;2.14;100.00
11440;BME280;5776;51.814;4.510;2024-01-16T11:38:25;100886.41;;;2.06;100.00
11440;BME280;5776;51.814;4.510;2024-01-16T11:40:53;100889.78;;;2.02;100.00
11440;BME280;5776;51.814;4.510;2024-01-16T11:43:45;100891.09;;;2.11;100.00
11440;BME280;5776;51.814;4.510;2024-01-16T11:46:11;100893.31;;;2.26;100.00
11440;BME280;5776;51.814;4.510;2024-01-16T11:49:01;100888.66;;;2.21;100.00
11440;BME280;5776;51.814;4.510;2024-01-16T11:51:28;100890.28;;;2.22;100.00
11440;BME280;5776;51.814;4.510;2024-01-16T11:53:54;100881.63;;;2.08;100.00
11440;BME280;5776;51.814;4.510;2024-01-16T11:59:32;100871.47;;;2.10;100.00
11440;BME280;5776;51.814;4.510;2024-01-16T12:02:11;100869.78;;;2.16;100.00
11440;BME280;5776;51.814;4.510;2024-01-16T12:04:39;100868.38;;;2.13;100.00
11440;BME280;5776;51.814;4.510;2024-01-16T12:07:05;100866.03;;;2.17;100.00
11440;BME280;5776;51.814;4.510;2024-01-16T12:09:31;100857.31;;;2.33;100.00
11440;BME280;5776;51.814;4.510;2024-01-16T12:11:59;100862.91;;;2.32;100.00
11440;BME280;5776;51.814;4.510;2024-01-16T12:14:29;100858.81;;;2.29;100.00
11440;BME280;5776;51.814;4.510;2024-01-16T12:17:11;100851.38;;;2.31;100.00
11440;BME280;5776;51.814;4.510;2024-01-16T12:19:37;100854.16;;;2.36;100.00
11440;BME280;5776;51.814;4.510;2024-01-16T12:22:12;100850.09;;;2.34;100.00
11440;BME280;5776;51.814;4.510;2024-01-16T12:24:40;100856.59;;;2.26;100.00
11440;BME280;5776;51.814;4.510;2024-01-16T12:27:06;100849.28;;;2.33;100.00
11440;BME280;5776;51.814;4.510;2024-01-16T12:29:33;100850.53;;;2.43;100.00
11440;BME280;5776;51.814;4.510;2024-01-16T12:34:34;100843.19;;;2.38;100.00
11440;BME280;5776;51.814;4.510;2024-01-16T12:37:05;100841.00;;;2.47;100.00
11440;BME280;5776;51.814;4.510;2024-01-16T12:39:36;100840.63;;;2.55;100.00
11440;BME280;5776;51.814;4.510;2024-01-16T12:42:02;100841.56;;;2.49;100.00
11440;BME280;5776;51.814;4.510;2024-01-16T12:44:28;100837.25;;;2.48;100.00
11440;BME280;5776;51.814;4.510;2024-01-16T12:46:55;100835.47;;;2.65;100.00
11440;BME280;5776;51.814;4.510;2024-01-16T12:49:22;100842.34;;;2.73;100.00
11440;BME280;5776;51.814;4.510;2024-01-16T12:51:49;100832.31;;;2.80;100.00
11440;BME280;5776;51.814;4.510;2024-01-16T12:54:16;100841.97;;;2.93;100.00
11440;BME280;5776;51.814;4.510;2024-01-16T12:56:43;100824.53;;;2.78;100.00
11440;BME280;5776;51.814;4.510;2024-01-16T12:59:13;100826.56;;;2.88;100.00
11440;BME280;5776;51.814;4.510;2024-01-16T13:01:44;100821.41;;;2.98;100.00
11440;BME280;5776;51.814;4.510;2024-01-16T13:04:12;100800.72;;;3.11;100.00
11440;BME280;5776;51.814;4.510;2024-01-16T13:06:42;100808.94;;;3.04;100.00
11440;BME280;5776;51.814;4.510;2024-01-16T13:09:10;100806.06;;;2.94;100.00
11440;BME280;5776;51.814;4.510;2024-01-16T13:11:51;100801.63;;;2.88;100.00
11440;BME280;5776;51.814;4.510;2024-01-16T13:14:18;100804.88;;;2.90;100.00